createdAt,value
2018-11-28T00:02:17.211Z,-1.98
2018-11-28T00:04:47.742Z,-1.98
2018-11-28T00:07:17.332Z,-2.06
2018-11-28T00:09:46.718Z,-2.22
2018-11-28T00:12:16.788Z,-2.11
2018-11-28T00:14:46.694Z,-2.15
2018-11-28T00:17:17.336Z,-2.18
2018-11-28T00:19:48.877Z,-2.24
2018-11-28T00:22:18.257Z,-2.34
2018-11-28T00:24:51.052Z,-2.21
2018-11-28T00:27:21.995Z,-2.23
2018-11-28T00:29:52.856Z,-2.27
2018-11-28T00:32:23.805Z,-2.31
2018-11-28T00:34:53.937Z,-2.34
2018-11-28T00:37:23.330Z,-2.32
2018-11-28T00:39:54.935Z,-2.28
2018-11-28T00:42:31.277Z,-2.27
2018-11-28T00:45:02.077Z,-2.22
2018-11-28T00:47:32.844Z,-2.28
2018-11-28T00:50:02.897Z,-2.22
2018-11-28T00:52:35.094Z,-2.22
2018-11-28T00:55:08.986Z,-2.19
2018-11-28T00:57:41.165Z,-2.15
2018-11-28T01:00:16.420Z,-2.15
2018-11-28T01:02:48.448Z,-2.15
2018-11-28T01:05:18.137Z,-2.13
2018-11-28T01:07:53.821Z,-2.09
2018-11-28T01:10:26.160Z,-2.04
2018-11-28T01:12:56.894Z,-2.05
2018-11-28T01:15:26.992Z,-2.05
2018-11-28T01:17:58.165Z,-2.00
2018-11-28T01:20:29.112Z,-1.95
2018-11-28T01:23:10.050Z,-2.72
2018-11-28T01:25:42.952Z,-1.99
2018-11-28T01:28:16.117Z,-1.95
2018-11-28T01:30:50.098Z,-2.07
2018-11-28T01:33:21.108Z,-2.05
2018-11-28T01:35:53.252Z,-2.11
2018-11-28T01:38:24.246Z,-2.11
2018-11-28T01:40:55.169Z,-2.07
2018-11-28T01:43:27.253Z,-2.33
2018-11-28T01:45:59.236Z,-2.41
2018-11-28T01:48:29.765Z,-2.44
2018-11-28T01:51:00.361Z,-2.48
2018-11-28T01:53:30.588Z,-2.39
2018-11-28T01:56:01.084Z,-2.31
2018-11-28T01:58:30.445Z,-2.25
2018-11-28T02:01:02.825Z,-2.20
2018-11-28T02:03:36.071Z,-2.20
2018-11-28T02:06:06.300Z,-2.27
2018-11-28T02:08:40.211Z,-2.25
2018-11-28T02:11:13.317Z,-2.24
2018-11-28T02:13:44.596Z,-2.27
2018-11-28T02:16:14.468Z,-2.23
2018-11-28T02:18:45.357Z,-2.28
2018-11-28T02:21:16.457Z,-2.08
2018-11-28T02:23:47.248Z,-2.20
2018-11-28T02:26:21.151Z,-2.16
2018-11-28T02:28:54.370Z,-2.13
2018-11-28T02:31:24.409Z,-2.15
2018-11-28T02:33:58.485Z,-2.20
2018-11-28T02:36:30.269Z,-2.20
2018-11-28T02:39:03.533Z,-2.24
2018-11-28T02:41:34.489Z,-2.27
2018-11-28T02:44:06.403Z,-2.25
2018-11-28T02:46:38.420Z,-2.25
2018-11-28T02:49:09.506Z,-2.24
2018-11-28T02:51:39.478Z,-2.26
2018-11-28T02:54:13.198Z,-2.16
2018-11-28T02:56:43.401Z,-2.32
2018-11-28T02:59:17.686Z,-2.40
2018-11-28T03:01:48.190Z,-2.41
2018-11-28T03:04:17.693Z,-2.36
2018-11-28T03:06:49.357Z,-2.29
2018-11-28T03:09:20.027Z,-2.23
2018-11-28T03:11:50.810Z,-2.25
2018-11-28T03:14:20.946Z,-2.23
2018-11-28T03:16:51.590Z,-2.24
2018-11-28T03:19:21.717Z,-2.15
2018-11-28T03:21:52.681Z,-2.07
2018-11-28T03:24:23.681Z,-2.13
2018-11-28T03:26:54.325Z,-2.17
2018-11-28T03:29:25.171Z,-2.23
2018-11-28T03:31:55.827Z,-2.27
2018-11-28T03:34:26.358Z,-2.34
2018-11-28T03:37:05.672Z,-2.39
2018-11-28T03:39:37.589Z,-2.42
2018-11-28T03:42:13.557Z,-2.43
2018-11-28T03:44:44.613Z,-2.44
2018-11-28T03:47:14.900Z,-2.46
2018-11-28T03:49:45.870Z,-2.52
2018-11-28T03:52:16.858Z,-2.51
2018-11-28T03:54:47.577Z,-2.51
2018-11-28T03:57:17.761Z,-2.57
2018-11-28T03:59:48.653Z,-2.59
2018-11-28T04:02:18.054Z,-2.57
2018-11-28T04:04:52.576Z,-2.58
2018-11-28T04:07:31.706Z,-2.64
2018-11-28T04:10:03.253Z,-2.68
2018-11-28T04:12:32.749Z,-2.73
2018-11-28T04:15:03.887Z,-2.78
2018-11-28T04:17:34.870Z,-2.80
2018-11-28T04:20:06.938Z,-2.87
2018-11-28T04:22:36.998Z,-2.90
2018-11-28T04:25:08.069Z,-2.89
2018-11-28T04:27:40.684Z,-2.94
2018-11-28T04:30:17.779Z,-2.93
2018-11-28T04:32:48.545Z,-2.97
2018-11-28T04:35:18.090Z,-3.01
2018-11-28T04:37:48.959Z,-3.00
2018-11-28T04:40:19.310Z,-2.92
2018-11-28T04:42:50.321Z,-3.01
2018-11-28T04:45:25.345Z,-3.11
2018-11-28T04:47:55.794Z,-3.13
2018-11-28T04:50:29.867Z,-3.13
2018-11-28T04:53:06.605Z,-3.16
2018-11-28T04:55:36.161Z,-3.88
2018-11-28T04:58:07.174Z,-3.23
2018-11-28T05:00:38.393Z,-3.26
2018-11-28T05:03:08.456Z,-3.30
2018-11-28T05:05:39.153Z,-3.28
2018-11-28T05:08:14.117Z,-3.30
2018-11-28T05:10:46.241Z,-3.28
2018-11-28T05:13:17.923Z,-3.27
2018-11-28T05:15:48.161Z,-3.20
2018-11-28T05:18:17.743Z,-3.12
2018-11-28T05:20:53.996Z,-3.13
2018-11-28T05:23:28.422Z,-3.16
2018-11-28T05:25:59.245Z,-3.30
2018-11-28T05:28:29.177Z,-3.32
2018-11-28T05:31:01.201Z,-3.40
2018-11-28T05:33:31.281Z,-3.44
2018-11-28T05:36:01.243Z,-3.58
2018-11-28T05:38:31.338Z,-3.53
2018-11-28T05:41:03.327Z,-3.46
2018-11-28T05:43:33.104Z,-3.41
2018-11-28T05:46:10.093Z,-3.35
2018-11-28T05:48:44.011Z,-3.28
2018-11-28T05:51:14.311Z,-3.29
2018-11-28T05:53:48.339Z,-3.31
2018-11-28T05:56:18.045Z,-3.35
2018-11-28T05:58:50.119Z,-3.50
2018-11-28T06:01:20.624Z,-3.55
2018-11-28T06:03:51.274Z,-3.70
2018-11-28T06:06:21.521Z,-3.78
2018-11-28T06:08:53.318Z,-3.80
2018-11-28T06:11:23.797Z,-3.73
2018-11-28T06:13:54.289Z,-3.78
2018-11-28T06:16:27.448Z,-3.72
2018-11-28T06:18:58.478Z,-3.76
2018-11-28T06:21:28.609Z,-3.74
2018-11-28T06:23:59.561Z,-3.76
2018-11-28T06:26:30.496Z,-3.82
2018-11-28T06:29:00.500Z,-3.74
2018-11-28T06:31:31.572Z,-3.72
2018-11-28T06:34:01.598Z,-3.63
2018-11-28T06:36:32.624Z,-3.67
2018-11-28T06:39:02.581Z,-3.64
2018-11-28T06:41:33.421Z,-3.60
2018-11-28T06:44:04.690Z,-3.62
2018-11-28T06:46:35.608Z,-3.59
2018-11-28T06:49:05.721Z,-3.58
2018-11-28T06:51:36.688Z,-3.64
2018-11-28T06:54:06.483Z,-3.58
2018-11-28T06:56:37.620Z,-3.57
2018-11-28T06:59:08.793Z,-3.70
2018-11-28T07:01:39.710Z,-3.74
2018-11-28T07:04:09.739Z,-3.81
2018-11-28T07:06:40.906Z,-3.89
2018-11-28T07:09:11.476Z,-3.83
2018-11-28T07:11:45.460Z,-3.89
2018-11-28T07:14:16.640Z,-3.94
2018-11-28T07:16:48.200Z,-3.99
2018-11-28T07:19:17.950Z,-3.97
2018-11-28T07:21:48.558Z,-3.91
2018-11-28T07:24:18.016Z,-3.89
2018-11-28T07:26:49.717Z,-3.82
2018-11-28T07:29:21.691Z,-3.78
2018-11-28T07:31:53.779Z,-3.59
2018-11-28T07:34:24.720Z,-3.46
2018-11-28T07:37:00.671Z,-3.40
2018-11-28T07:39:30.686Z,-3.30
2018-11-28T07:42:02.518Z,-3.22
2018-11-28T07:44:33.300Z,-3.10
2018-11-28T07:47:03.981Z,-2.94
2018-11-28T07:49:34.641Z,-2.84
2018-11-28T07:52:04.982Z,-2.75
2018-11-28T07:54:35.831Z,-2.60
2018-11-28T07:57:06.802Z,-2.48
2018-11-28T07:59:37.501Z,-2.37
2018-11-28T08:02:07.797Z,-2.17
2018-11-28T08:04:47.938Z,-1.94
2018-11-28T08:07:17.993Z,-1.81
2018-11-28T08:09:47.880Z,-1.67
2018-11-28T08:12:21.778Z,-1.56
2018-11-28T08:14:52.972Z,-1.45
2018-11-28T08:17:25.143Z,-1.55
2018-11-28T08:19:56.703Z,-1.48
2018-11-28T08:22:31.931Z,-1.39
2018-11-28T08:25:03.067Z,-1.30
2018-11-28T08:27:38.938Z,-1.19
2018-11-28T08:30:17.810Z,-1.10
2018-11-28T08:32:52.071Z,-1.01
2018-11-28T08:35:21.930Z,-0.95
2018-11-28T08:37:56.833Z,-1.00
2018-11-28T08:40:28.071Z,-0.96
2018-11-28T08:42:58.555Z,-1.00
2018-11-28T08:45:27.965Z,-0.95
2018-11-28T08:47:59.536Z,-0.97
2018-11-28T08:50:30.869Z,-0.79
2018-11-28T08:53:03.163Z,-0.53
2018-11-28T08:55:34.193Z,-0.49
2018-11-28T08:58:05.068Z,-0.47
2018-11-28T09:00:36.211Z,-0.34
2018-11-28T09:03:06.627Z,-0.25
2018-11-28T09:05:38.170Z,0.08
2018-11-28T09:08:15.955Z,0.23
2018-11-28T09:10:50.147Z,0.48
2018-11-28T09:13:21.244Z,0.49
2018-11-28T09:15:51.365Z,0.50
2018-11-28T09:18:24.108Z,0.73
2018-11-28T09:20:58.089Z,0.76
2018-11-28T09:23:29.832Z,0.62
2018-11-28T09:26:00.358Z,1.00
2018-11-28T09:28:41.400Z,1.36
2018-11-28T09:31:22.690Z,1.49
2018-11-28T09:34:09.977Z,0.96
2018-11-28T09:36:56.702Z,1.07
2018-11-28T09:39:41.823Z,1.74
2018-11-28T09:42:25.915Z,1.86
2018-11-28T09:45:12.161Z,2.28
2018-11-28T09:47:57.826Z,2.63
2018-11-28T09:50:44.266Z,2.59
2018-11-28T09:53:19.596Z,1.92
2018-11-28T09:55:50.293Z,2.16
2018-11-28T09:58:21.511Z,2.49
2018-11-28T10:00:51.410Z,2.87
2018-11-28T10:03:21.452Z,3.13
2018-11-28T10:05:53.559Z,3.05
2018-11-28T10:08:24.623Z,3.13
2018-11-28T10:10:54.540Z,3.09
2018-11-28T10:13:35.032Z,3.14
2018-11-28T10:16:18.876Z,2.43
2018-11-28T10:18:54.086Z,2.38
2018-11-28T10:21:24.556Z,2.50
2018-11-28T10:23:55.522Z,1.96
2018-11-28T10:26:27.530Z,2.65
2018-11-28T10:28:57.624Z,3.06
2018-11-28T10:31:28.529Z,3.33
2018-11-28T10:33:58.562Z,3.57
2018-11-28T10:36:30.196Z,3.68
2018-11-28T10:39:08.917Z,3.86
2018-11-28T10:41:39.802Z,3.89
2018-11-28T10:44:10.719Z,4.09
2018-11-28T10:46:43.458Z,4.23
2018-11-28T10:49:14.656Z,4.61
2018-11-28T10:51:50.200Z,4.21
2018-11-28T10:54:15.627Z,4.47
2018-11-28T10:56:46.774Z,4.13
2018-11-28T10:59:16.679Z,4.47
2018-11-28T11:01:56.806Z,4.65
2018-11-28T11:04:31.712Z,4.67
2018-11-28T11:07:09.713Z,4.80
2018-11-28T11:11:51.664Z,5.02
2018-11-28T11:14:26.962Z,4.71
2018-11-28T11:16:57.635Z,4.84
2018-11-28T11:19:27.756Z,4.84
2018-11-28T11:21:59.698Z,5.12
2018-11-28T11:24:33.354Z,5.05
2018-11-28T11:27:03.925Z,4.91
2018-11-28T11:29:35.078Z,5.14
2018-11-28T11:32:06.128Z,5.14
2018-11-28T11:34:36.817Z,4.95
2018-11-28T11:37:07.692Z,5.09
2018-11-28T11:39:40.914Z,5.22
2018-11-28T11:42:12.011Z,5.20
2018-11-28T11:44:41.920Z,5.32
2018-11-28T11:47:13.024Z,5.36
2018-11-28T11:49:43.086Z,5.33
2018-11-28T11:52:16.829Z,5.41
2018-11-28T11:54:47.841Z,5.49
2018-11-28T11:57:18.065Z,5.49
2018-11-28T11:59:49.053Z,5.43
2018-11-28T12:02:18.593Z,5.36
2018-11-28T12:04:49.942Z,5.39
2018-11-28T12:07:22.365Z,5.50
2018-11-28T12:09:52.014Z,5.55
2018-11-28T12:12:28.331Z,5.50
2018-11-28T12:15:02.083Z,5.65
2018-11-28T12:17:33.823Z,5.72
2018-11-28T12:20:08.876Z,5.80
2018-11-28T12:22:38.280Z,5.92
2018-11-28T12:25:12.404Z,5.85
2018-11-28T12:27:49.621Z,5.99
2018-11-28T12:30:19.915Z,5.91
2018-11-28T12:32:53.047Z,5.94
2018-11-28T12:35:24.170Z,5.95
2018-11-28T12:37:54.068Z,6.05
2018-11-28T12:40:31.614Z,5.86
2018-11-28T12:43:01.545Z,5.78
2018-11-28T12:45:32.206Z,6.05
2018-11-28T12:48:07.697Z,6.09
2018-11-28T12:50:43.397Z,6.08
2018-11-28T12:53:14.701Z,6.01
2018-11-28T12:55:50.830Z,5.93
2018-11-28T12:58:25.968Z,6.01
2018-11-28T13:00:57.247Z,6.01
2018-11-28T13:03:27.592Z,5.98
2018-11-28T13:08:59.069Z,6.08
2018-11-28T13:11:35.255Z,6.12
2018-11-28T13:14:06.637Z,5.44
2018-11-28T13:16:36.311Z,5.75
2018-11-28T13:19:11.089Z,5.62
2018-11-28T13:21:44.246Z,5.58
2018-11-28T13:24:17.145Z,5.80
2018-11-28T13:26:51.259Z,5.65
2018-11-28T13:29:22.182Z,5.80
2018-11-28T13:31:53.234Z,6.07
2018-11-28T13:34:28.096Z,5.78
2018-11-28T13:37:07.640Z,5.72
2018-11-28T13:39:38.425Z,5.59
2018-11-28T13:42:09.975Z,5.85
2018-11-28T13:44:41.331Z,5.98
2018-11-28T13:47:16.478Z,5.97
2018-11-28T13:49:46.265Z,5.90
2018-11-28T13:52:17.334Z,5.99
2018-11-28T13:55:37.341Z,5.66
2018-11-28T13:57:18.660Z,5.51
2018-11-28T13:59:48.379Z,5.26
2018-11-28T14:02:25.186Z,4.94
2018-11-28T14:04:55.612Z,4.88
2018-11-28T14:07:27.455Z,4.87
2018-11-28T14:09:59.563Z,4.26
2018-11-28T14:12:30.628Z,4.02
2018-11-28T14:15:00.724Z,3.98
2018-11-28T14:17:31.698Z,3.61
2018-11-28T14:20:01.545Z,3.32
2018-11-28T14:22:35.466Z,3.16
2018-11-28T14:25:06.096Z,2.93
2018-11-28T14:27:36.575Z,2.78
2018-11-28T14:30:22.166Z,2.63
2018-11-28T14:32:54.665Z,2.50
2018-11-28T14:35:26.700Z,2.34
2018-11-28T14:37:57.720Z,2.28
2018-11-28T14:40:28.032Z,2.16
2018-11-28T14:42:59.627Z,2.07
2018-11-28T14:45:32.372Z,2.09
2018-11-28T14:48:03.013Z,2.01
2018-11-28T14:50:36.457Z,1.91
2018-11-28T14:53:06.790Z,1.83
2018-11-28T14:55:39.811Z,1.82
2018-11-28T14:58:12.969Z,1.75
2018-11-28T15:00:44.192Z,1.69
2018-11-28T15:03:21.256Z,1.60
2018-11-28T15:06:10.988Z,1.61
2018-11-28T15:08:42.789Z,1.60
2018-11-28T15:11:16.330Z,1.59
2018-11-28T15:13:52.688Z,1.51
2018-11-28T15:16:33.839Z,1.30
2018-11-28T15:19:03.990Z,1.23
2018-11-28T15:21:35.292Z,1.19
2018-11-28T15:24:06.076Z,1.19
2018-11-28T15:26:36.021Z,1.01
2018-11-28T15:29:06.583Z,0.86
2018-11-28T15:31:37.603Z,0.84
2018-11-28T15:34:13.809Z,0.81
2018-11-28T15:36:44.045Z,0.76
2018-11-28T15:39:15.565Z,0.84
2018-11-28T15:41:54.684Z,0.72
2018-11-28T15:44:25.506Z,0.61
2018-11-28T15:46:59.153Z,0.54
2018-11-28T15:49:29.536Z,0.48
2018-11-28T15:52:07.232Z,0.47
2018-11-28T15:54:37.260Z,0.38
2018-11-28T15:57:07.425Z,0.24
2018-11-28T15:59:40.181Z,0.21
2018-11-28T16:02:12.045Z,0.19
2018-11-28T16:04:42.181Z,0.15
2018-11-28T16:07:13.115Z,0.10
2018-11-28T16:10:48.890Z,-0.03
2018-11-28T16:13:19.121Z,-0.08
2018-11-28T16:15:54.580Z,-0.06
2018-11-28T16:18:33.099Z,-0.15
2018-11-28T16:21:05.906Z,-0.14
2018-11-28T16:23:43.047Z,-0.23
2018-11-28T16:26:17.990Z,-0.21
2018-11-28T16:28:49.145Z,-0.20
2018-11-28T16:31:19.395Z,-0.21
2018-11-28T16:33:50.588Z,-0.29
2018-11-28T16:36:22.385Z,-0.34
2018-11-28T16:38:54.152Z,-0.36
2018-11-28T16:41:25.477Z,-0.35
2018-11-28T16:43:56.921Z,-0.35
2018-11-28T16:46:35.283Z,-0.35
2018-11-28T16:49:06.505Z,-0.32
2018-11-28T16:51:39.556Z,-0.34
2018-11-28T16:54:14.870Z,-0.46
2018-11-28T16:56:50.617Z,-0.55
2018-11-28T16:59:23.525Z,-0.53
2018-11-28T17:01:59.705Z,-0.58
2018-11-28T17:04:33.143Z,-0.64
2018-11-28T17:07:09.237Z,-0.60
2018-11-28T17:09:43.037Z,-0.59
2018-11-28T17:12:14.593Z,-0.68
2018-11-28T17:14:44.377Z,-0.82
2018-11-28T17:17:15.506Z,-0.82
2018-11-28T17:19:45.313Z,-0.90
2018-11-28T17:22:16.244Z,-0.94
2018-11-28T17:24:47.768Z,-0.93
2018-11-28T17:27:19.260Z,-0.90
2018-11-28T17:29:52.827Z,-0.95
2018-11-28T17:32:22.560Z,-1.09
2018-11-28T17:34:56.778Z,-1.09
2018-11-28T17:37:29.788Z,-1.20
2018-11-28T17:40:17.374Z,-1.26
2018-11-28T17:42:49.889Z,-1.36
2018-11-28T17:45:20.122Z,-1.30
2018-11-28T17:47:49.948Z,-1.28
2018-11-28T17:50:21.429Z,-1.29
2018-11-28T17:52:56.342Z,-1.31
2018-11-28T17:55:29.410Z,-1.33
2018-11-28T17:58:01.633Z,-1.35
2018-11-28T18:00:31.532Z,-1.44
2018-11-28T18:03:02.591Z,-1.57
2018-11-28T18:05:32.504Z,-1.63
2018-11-28T18:08:06.567Z,-1.70
2018-11-28T18:10:36.784Z,-1.67
2018-11-28T18:13:12.482Z,-1.86
2018-11-28T18:15:54.930Z,-1.76
2018-11-28T18:18:26.419Z,-1.77
2018-11-28T18:20:55.805Z,-1.81
2018-11-28T18:23:27.081Z,-1.81
2018-11-28T18:25:58.813Z,-1.85
2018-11-28T18:28:29.738Z,-1.85
2018-11-28T18:31:00.694Z,-1.96
2018-11-28T18:33:31.421Z,-1.94
2018-11-28T18:36:06.561Z,-1.99
2018-11-28T18:38:44.452Z,-2.11
2018-11-28T18:41:19.480Z,-2.22
2018-11-28T18:43:53.578Z,-2.18
2018-11-28T18:46:25.383Z,-2.19
2018-11-28T18:48:59.474Z,-2.25
2018-11-28T18:51:29.693Z,-2.30
2018-11-28T18:54:02.665Z,-2.31
2018-11-28T18:56:39.687Z,-2.24
2018-11-28T18:59:09.662Z,-2.21
2018-11-28T19:01:48.404Z,-2.26
2018-11-28T19:04:15.494Z,-2.30
2018-11-28T19:06:45.345Z,-2.37
2018-11-28T19:09:20.172Z,-2.41
2018-11-28T19:11:56.177Z,-2.46
2018-11-28T19:14:28.100Z,-2.49
2018-11-28T19:16:59.780Z,-2.65
2018-11-28T19:19:29.561Z,-2.60
2018-11-28T19:22:06.861Z,-2.63
2018-11-28T19:24:39.941Z,-2.65
2018-11-28T19:27:10.370Z,-2.68
2018-11-28T19:29:41.173Z,-2.85
2018-11-28T19:32:15.710Z,-2.81
2018-11-28T19:34:45.171Z,-2.84
2018-11-28T19:37:16.918Z,-2.78
2018-11-28T19:39:47.092Z,-2.82
2018-11-28T19:42:18.001Z,-2.84
2018-11-28T19:44:48.053Z,-2.84
2018-11-28T19:47:19.105Z,-2.91
2018-11-28T19:49:50.136Z,-2.86
2018-11-28T19:52:19.646Z,-2.86
2018-11-28T19:54:51.066Z,-2.96
2018-11-28T19:57:22.365Z,-3.06
2018-11-28T19:59:53.441Z,-3.06
2018-11-28T20:02:25.213Z,-3.13
2018-11-28T20:04:58.341Z,-3.18
2018-11-28T20:07:28.307Z,-3.19
2018-11-28T20:09:58.259Z,-3.21
2018-11-28T20:12:28.856Z,-3.24
2018-11-28T20:15:02.249Z,-3.32
2018-11-28T20:17:33.731Z,-3.32
2018-11-28T20:20:05.973Z,-3.40
2018-11-28T20:22:46.648Z,-3.46
2018-11-28T20:25:22.943Z,-3.51
2018-11-28T20:27:57.168Z,-3.44
2018-11-28T20:30:33.722Z,-3.45
2018-11-28T20:33:03.609Z,-3.48
2018-11-28T20:35:34.391Z,-3.42
2018-11-28T20:38:04.578Z,-3.63
2018-11-28T20:40:35.444Z,-3.69
2018-11-28T20:43:06.718Z,-3.69
2018-11-28T20:45:36.725Z,-3.76
2018-11-28T20:48:07.518Z,-3.73
2018-11-28T20:50:38.593Z,-3.92
2018-11-28T20:53:13.296Z,-4.11
2018-11-28T20:55:44.004Z,-4.00
2018-11-28T20:58:17.320Z,-4.04
2018-11-28T21:00:54.240Z,-4.26
2018-11-28T21:03:26.429Z,-4.23
2018-11-28T21:05:58.240Z,-4.22
2018-11-28T21:17:23.369Z,-4.28
2018-11-28T21:19:55.405Z,-4.29
2018-11-28T21:22:25.511Z,-4.33
2018-11-28T21:24:56.451Z,-4.35
2018-11-28T21:27:26.568Z,-4.39
2018-11-28T21:29:57.566Z,-4.36
2018-11-28T21:32:28.807Z,-4.33
2018-11-28T21:34:58.585Z,-4.19
2018-11-28T21:37:29.752Z,-4.12
2018-11-28T21:39:59.641Z,-4.13
2018-11-28T21:42:30.373Z,-4.13
2018-11-28T21:45:01.630Z,-4.16
2018-11-28T21:47:31.469Z,-4.16
2018-11-28T21:50:03.040Z,-4.18
2018-11-28T21:52:37.614Z,-4.24
2018-11-28T21:55:17.131Z,-4.31
2018-11-28T21:57:49.753Z,-4.36
2018-11-28T22:00:26.279Z,-4.38
2018-11-28T22:02:59.461Z,-4.44
2018-11-28T22:05:30.934Z,-4.49
2018-11-28T22:08:01.694Z,-4.47
2018-11-28T22:10:32.720Z,-4.52
2018-11-28T22:13:03.606Z,-4.50
2018-11-28T22:15:34.334Z,-4.50
2018-11-28T22:18:04.862Z,-4.48
2018-11-28T22:20:35.565Z,-4.77
2018-11-28T22:23:05.748Z,-4.72
2018-11-28T22:25:36.625Z,-4.61
2018-11-28T22:28:07.412Z,-4.55
2018-11-28T22:30:37.768Z,-4.60
2018-11-28T22:33:08.057Z,-4.55
2018-11-28T22:35:38.941Z,-4.50
2018-11-28T22:38:09.420Z,-4.47
2018-11-28T22:40:39.837Z,-4.43
2018-11-28T22:43:10.685Z,-4.63
2018-11-28T22:45:40.965Z,-4.81
2018-11-28T22:48:11.961Z,-4.74
2018-11-28T22:50:42.962Z,-4.61
2018-11-28T22:53:12.901Z,-4.54
2018-11-28T22:55:45.408Z,-4.54
2018-11-28T22:58:14.796Z,-4.54
2018-11-28T23:00:50.962Z,-4.56
2018-11-28T23:03:23.001Z,-4.60
2018-11-28T23:05:55.210Z,-4.64
2018-11-28T23:08:25.944Z,-4.78
2018-11-28T23:10:56.877Z,-4.82
2018-11-28T23:13:33.840Z,-4.86
2018-11-28T23:16:07.732Z,-4.88
2018-11-28T23:18:37.889Z,-4.91
2018-11-28T23:21:09.068Z,-4.92
2018-11-28T23:23:40.178Z,-4.85
2018-11-28T23:26:10.956Z,-4.93
2018-11-28T23:28:41.051Z,-4.98
2018-11-28T23:31:12.553Z,-5.05
2018-11-28T23:33:42.014Z,-5.01
2018-11-28T23:36:13.160Z,-4.99
2018-11-28T23:38:43.060Z,-4.98
2018-11-28T23:41:13.909Z,-5.02
2018-11-28T23:43:44.088Z,-5.04
2018-11-28T23:46:17.913Z,-4.97
2018-11-28T23:49:03.029Z,-4.98
2018-11-28T23:51:32.410Z,-5.11
2018-11-28T23:54:02.249Z,-5.17
2018-11-28T23:56:33.188Z,-5.21
2018-11-28T23:59:03.271Z,-5.33
